createdAt,value
2018-06-10T00:00:19.434Z,21.07
2018-06-10T00:02:48.169Z,24.20
2018-06-10T00:05:16.839Z,24.40
2018-06-10T00:07:45.414Z,24.67
2018-06-10T00:10:14.042Z,20.77
2018-06-10T00:12:42.704Z,24.53
2018-06-10T00:15:11.276Z,19.00
2018-06-10T00:17:39.824Z,19.40
2018-06-10T00:20:08.497Z,18.00
2018-06-10T00:22:37.064Z,20.60
2018-06-10T00:25:06.260Z,17.40
2018-06-10T00:27:34.958Z,13.97
2018-06-10T00:30:03.707Z,14.97
2018-06-10T00:32:32.482Z,19.60
2018-06-10T00:35:01.091Z,20.73
2018-06-10T00:37:29.961Z,16.83
2018-06-10T00:39:58.535Z,16.50
2018-06-10T00:42:27.230Z,13.90
2018-06-10T00:44:56.050Z,17.03
2018-06-10T00:47:24.840Z,18.70
2018-06-10T00:49:53.572Z,19.33
2018-06-10T00:52:22.404Z,18.80
2018-06-10T00:54:50.995Z,19.23
2018-06-10T00:57:19.574Z,17.00
2018-06-10T00:59:48.394Z,19.93
2018-06-10T01:02:17.066Z,17.60
2018-06-10T01:04:45.857Z,20.77
2018-06-10T01:07:14.520Z,16.80
2018-06-10T01:09:43.328Z,21.47
2018-06-10T01:12:12.098Z,21.27
2018-06-10T01:14:40.821Z,20.23
2018-06-10T01:17:09.567Z,23.10
2018-06-10T01:19:38.188Z,20.93
2018-06-10T01:22:06.918Z,19.10
2018-06-10T01:24:35.578Z,20.43
2018-06-10T01:27:03.969Z,22.20
2018-06-10T01:29:32.636Z,15.73
2018-06-10T01:32:01.377Z,18.03
2018-06-10T01:34:30.371Z,19.77
2018-06-10T01:36:58.974Z,17.93
2018-06-10T01:39:27.813Z,19.50
2018-06-10T01:41:56.351Z,24.47
2018-06-10T01:44:24.936Z,19.10
2018-06-10T01:46:53.704Z,22.93
2018-06-10T01:49:22.435Z,16.80
2018-06-10T01:51:51.234Z,17.33
2018-06-10T01:54:19.832Z,15.10
2018-06-10T01:56:48.350Z,14.93
2018-06-10T01:59:17.092Z,14.80
2018-06-10T02:01:45.655Z,15.93
2018-06-10T02:04:14.126Z,15.90
2018-06-10T02:06:42.896Z,17.20
2018-06-10T02:09:11.883Z,17.50
2018-06-10T02:11:40.471Z,20.77
2018-06-10T02:14:09.325Z,20.30
2018-06-10T02:16:38.052Z,18.80
2018-06-10T02:19:06.829Z,20.57
2018-06-10T02:21:35.300Z,22.03
2018-06-10T02:24:03.976Z,22.93
2018-06-10T02:26:32.644Z,22.90
2018-06-10T02:29:01.306Z,22.07
2018-06-10T02:31:29.954Z,20.93
2018-06-10T02:33:58.600Z,24.47
2018-06-10T02:36:27.380Z,21.10
2018-06-10T02:38:56.132Z,19.13
2018-06-10T02:41:24.884Z,23.20
2018-06-10T02:43:53.778Z,23.43
2018-06-10T02:46:22.580Z,24.50
2018-06-10T02:48:51.366Z,19.40
2018-06-10T02:51:20.157Z,16.33
2018-06-10T02:53:48.894Z,17.07
2018-06-10T02:56:17.745Z,17.37
2018-06-10T02:58:46.482Z,19.27
2018-06-10T03:01:15.233Z,21.40
2018-06-10T03:03:43.929Z,20.50
2018-06-10T03:06:12.850Z,18.20
2018-06-10T03:08:41.483Z,21.50
2018-06-10T03:11:10.421Z,23.80
2018-06-10T03:13:39.169Z,23.33
2018-06-10T03:16:08.017Z,17.00
2018-06-10T03:18:37.001Z,21.23
2018-06-10T03:21:05.500Z,20.90
2018-06-10T03:23:34.402Z,16.50
2018-06-10T03:28:55.583Z,21.10
2018-06-10T03:31:24.387Z,22.10
2018-06-10T03:33:53.151Z,20.60
2018-06-10T03:36:22.133Z,22.60
2018-06-10T03:38:50.716Z,22.47
2018-06-10T03:41:19.425Z,22.80
2018-06-10T03:43:48.187Z,20.93
2018-06-10T03:46:16.733Z,19.63
2018-06-10T03:48:45.247Z,20.03
2018-06-10T03:51:14.163Z,22.90
2018-06-10T03:53:42.731Z,20.90
2018-06-10T03:56:10.987Z,17.63
2018-06-10T03:58:39.788Z,17.90
2018-06-10T04:01:08.543Z,20.73
2018-06-10T04:03:37.116Z,17.40
2018-06-10T04:06:05.680Z,20.03
2018-06-10T04:08:34.248Z,16.17
2018-06-10T04:11:02.922Z,16.60
2018-06-10T04:13:31.649Z,19.30
2018-06-10T04:16:00.471Z,15.57
2018-06-10T04:18:29.271Z,17.30
2018-06-10T04:20:57.915Z,14.73
2018-06-10T04:23:26.852Z,20.20
2018-06-10T04:25:55.828Z,19.80
2018-06-10T04:28:24.357Z,19.37
2018-06-10T04:30:53.297Z,20.37
2018-06-10T04:33:21.880Z,17.27
2018-06-10T04:35:50.510Z,19.60
2018-06-10T04:38:18.751Z,17.57
2018-06-10T04:40:47.300Z,17.37
2018-06-10T04:43:16.105Z,16.47
2018-06-10T04:45:45.800Z,20.37
2018-06-10T04:48:14.453Z,20.87
2018-06-10T04:50:42.953Z,19.20
2018-06-10T04:53:11.604Z,18.53
2018-06-10T04:55:40.187Z,20.00
2018-06-10T04:58:08.780Z,18.50
2018-06-10T05:00:37.375Z,16.40
2018-06-10T05:03:05.886Z,14.63
2018-06-10T05:05:34.506Z,15.20
2018-06-10T05:08:03.286Z,13.43
2018-06-10T05:10:31.854Z,16.17
2018-06-10T05:13:00.394Z,14.37
2018-06-10T05:15:29.022Z,16.97
2018-06-10T05:17:57.517Z,15.97
2018-06-10T05:20:26.109Z,16.93
2018-06-10T05:22:54.576Z,15.67
2018-06-10T05:25:23.412Z,16.70
2018-06-10T05:27:51.926Z,14.33
2018-06-10T05:30:20.517Z,14.90
2018-06-10T05:32:49.213Z,14.10
2018-06-10T05:35:18.001Z,14.90
2018-06-10T05:37:46.801Z,14.27
2018-06-10T05:40:15.245Z,13.47
2018-06-10T05:42:43.831Z,15.27
2018-06-10T05:45:12.261Z,13.53
2018-06-10T05:47:40.753Z,13.73
2018-06-10T05:50:09.263Z,13.50
2018-06-10T05:52:38.172Z,14.23
2018-06-10T05:55:06.772Z,13.63
2018-06-10T05:57:35.358Z,12.83
2018-06-10T06:00:04.142Z,12.63
2018-06-10T06:02:32.768Z,13.40
2018-06-10T06:05:01.563Z,14.30
2018-06-10T06:07:30.226Z,14.70
2018-06-10T06:09:59.079Z,14.40
2018-06-10T06:12:27.511Z,13.97
2018-06-10T06:14:56.023Z,12.97
2018-06-10T06:17:24.645Z,13.00
2018-06-10T06:19:52.804Z,15.87
2018-06-10T06:22:21.323Z,14.37
2018-06-10T06:24:49.882Z,14.23
2018-06-10T06:27:18.540Z,13.70
2018-06-10T06:29:47.846Z,13.10
2018-06-10T06:32:16.373Z,12.57
2018-06-10T06:34:44.893Z,14.43
2018-06-10T06:37:13.536Z,12.80
2018-06-10T06:39:42.107Z,12.10
2018-06-10T06:42:10.547Z,13.13
2018-06-10T06:44:39.406Z,14.20
2018-06-10T06:47:07.964Z,15.93
2018-06-10T06:49:36.381Z,12.93
2018-06-10T06:52:05.373Z,15.17
2018-06-10T06:54:34.377Z,12.03
2018-06-10T06:57:03.454Z,13.80
2018-06-10T06:59:32.237Z,13.70
2018-06-10T07:02:01.159Z,13.17
2018-06-10T07:04:29.722Z,13.80
2018-06-10T07:06:58.432Z,13.13
2018-06-10T07:09:27.271Z,11.80
2018-06-10T07:11:56.200Z,8.63
2018-06-10T07:14:24.791Z,8.90
2018-06-10T07:16:53.445Z,8.53
2018-06-10T07:19:22.121Z,8.40
2018-06-10T07:21:50.884Z,8.20
2018-06-10T07:24:19.647Z,8.27
2018-06-10T07:26:49.053Z,8.50
2018-06-10T07:29:17.697Z,8.53
2018-06-10T07:31:46.499Z,7.63
2018-06-10T07:35:44.567Z,7.50
2018-06-10T07:38:13.321Z,7.20
2018-06-10T07:40:42.168Z,7.47
2018-06-10T07:43:11.161Z,7.20
2018-06-10T07:45:39.983Z,6.80
2018-06-10T07:48:08.753Z,7.00
2018-06-10T07:50:37.494Z,6.50
2018-06-10T07:53:06.833Z,7.20
2018-06-10T07:55:35.391Z,8.43
2018-06-10T07:58:04.041Z,6.73
2018-06-10T08:00:33.020Z,7.20
2018-06-10T08:03:02.129Z,7.43
2018-06-10T08:05:30.938Z,7.30
2018-06-10T08:07:59.859Z,7.00
2018-06-10T08:10:28.962Z,7.23
2018-06-10T08:12:57.467Z,7.33
2018-06-10T08:15:26.135Z,8.63
2018-06-10T08:17:54.848Z,8.57
2018-06-10T08:20:23.394Z,8.70
2018-06-10T08:22:52.111Z,9.53
2018-06-10T08:25:20.748Z,8.83
2018-06-10T08:27:49.457Z,8.20
2018-06-10T08:30:17.953Z,9.70
2018-06-10T08:32:46.629Z,8.10
2018-06-10T08:35:15.121Z,8.90
2018-06-10T08:37:43.743Z,9.40
2018-06-10T08:40:12.334Z,9.17
2018-06-10T08:42:42.205Z,9.73
2018-06-10T08:45:11.044Z,9.23
2018-06-10T08:47:39.706Z,9.13
2018-06-10T08:50:08.351Z,8.60
2018-06-10T08:52:37.029Z,8.37
2018-06-10T08:55:05.621Z,9.13
2018-06-10T08:57:34.484Z,8.87
2018-06-10T09:00:03.490Z,8.63
2018-06-10T09:02:32.104Z,8.77
2018-06-10T09:05:00.935Z,9.07
2018-06-10T09:07:29.915Z,9.17
2018-06-10T09:10:00.325Z,9.27
2018-06-10T09:12:29.935Z,8.30
2018-06-10T09:14:59.617Z,8.43
2018-06-10T09:17:28.583Z,9.10
2018-06-10T09:19:57.721Z,8.80
2018-06-10T09:22:27.026Z,8.87
2018-06-10T09:24:56.385Z,10.33
2018-06-10T09:27:26.479Z,10.10
2018-06-10T09:29:55.952Z,9.83
2018-06-10T09:32:25.701Z,10.53
2018-06-10T09:34:54.458Z,9.80
2018-06-10T09:37:22.984Z,10.33
2018-06-10T09:39:51.727Z,11.07
2018-06-10T09:42:20.438Z,10.13
2018-06-10T09:44:48.932Z,11.43
2018-06-10T09:47:17.647Z,10.10
2018-06-10T09:49:46.654Z,9.93
2018-06-10T09:52:15.052Z,10.87
2018-06-10T09:54:43.998Z,11.00
2018-06-10T09:57:12.903Z,9.53
2018-06-10T09:59:42.092Z,9.97
2018-06-10T10:02:10.965Z,11.10
2018-06-10T10:04:39.631Z,10.17
2018-06-10T10:07:08.087Z,9.67
2018-06-10T10:09:37.568Z,10.93
2018-06-10T10:12:06.611Z,9.43
2018-06-10T10:14:35.534Z,10.70
2018-06-10T10:17:05.107Z,10.63
2018-06-10T10:19:34.777Z,10.40
2018-06-10T10:22:03.641Z,9.60
2018-06-10T10:24:33.550Z,10.00
2018-06-10T10:27:02.689Z,9.90
2018-06-10T10:29:31.836Z,10.27
2018-06-10T10:32:00.598Z,10.00
2018-06-10T10:34:29.045Z,10.57
2018-06-10T10:36:57.887Z,10.23
2018-06-10T10:39:26.794Z,9.80
2018-06-10T10:41:55.101Z,11.30
2018-06-10T10:44:23.542Z,9.83
2018-06-10T10:46:52.070Z,10.00
2018-06-10T10:49:20.654Z,11.17
2018-06-10T10:51:49.093Z,12.67
2018-06-10T10:54:17.682Z,9.70
2018-06-10T10:56:46.152Z,9.20
2018-06-10T10:59:14.815Z,8.60
2018-06-10T11:01:43.937Z,8.73
2018-06-10T11:04:12.646Z,9.10
2018-06-10T11:06:41.315Z,9.03
2018-06-10T11:09:10.050Z,9.83
2018-06-10T11:11:38.539Z,9.50
2018-06-10T11:14:07.213Z,10.23
2018-06-10T11:16:35.930Z,10.10
2018-06-10T11:19:04.394Z,9.40
2018-06-10T11:21:32.882Z,9.90
2018-06-10T11:24:01.732Z,11.20
2018-06-10T11:26:30.502Z,10.13
2018-06-10T11:28:59.122Z,11.33
2018-06-10T11:31:27.751Z,10.27
2018-06-10T11:33:56.442Z,9.87
2018-06-10T11:36:24.907Z,12.07
2018-06-10T11:38:53.419Z,11.70
2018-06-10T11:41:22.575Z,11.30
2018-06-10T11:43:53.112Z,11.77
2018-06-10T11:46:21.966Z,11.60
2018-06-10T11:51:36.241Z,11.40
2018-06-10T11:54:04.977Z,11.63
2018-06-10T11:56:33.900Z,10.93
2018-06-10T11:59:03.259Z,11.70
2018-06-10T12:01:32.495Z,11.70
2018-06-10T12:04:02.798Z,12.77
2018-06-10T12:06:31.858Z,11.80
2018-06-10T12:09:00.611Z,11.90
2018-06-10T12:11:30.075Z,12.73
2018-06-10T12:13:59.143Z,12.30
2018-06-10T12:16:28.291Z,11.37
2018-06-10T12:18:56.877Z,12.83
2018-06-10T12:21:25.951Z,11.43
2018-06-10T12:23:55.875Z,11.80
2018-06-10T12:26:24.787Z,11.97
2018-06-10T12:28:53.677Z,12.30
2018-06-10T12:31:27.039Z,12.00
2018-06-10T12:33:57.546Z,11.40
2018-06-10T12:36:29.107Z,11.83
2018-06-10T12:38:58.480Z,11.40
2018-06-10T12:41:27.224Z,11.93
2018-06-10T12:43:56.199Z,11.40
2018-06-10T12:46:26.036Z,11.30
2018-06-10T12:54:26.502Z,12.10
2018-06-10T12:56:57.142Z,12.90
2018-06-10T12:59:28.856Z,12.03
2018-06-10T13:02:01.986Z,11.27
2018-06-10T13:05:35.048Z,11.60
2018-06-10T13:08:03.989Z,13.23
2018-06-10T13:10:32.962Z,13.13
2018-06-10T13:13:01.488Z,11.10
2018-06-10T13:15:30.159Z,12.33
2018-06-10T13:17:58.979Z,10.03
2018-06-10T13:20:27.494Z,12.33
2018-06-10T13:22:56.451Z,11.60
2018-06-10T13:25:25.781Z,9.10
2018-06-10T13:27:54.399Z,7.53
2018-06-10T13:30:23.094Z,8.63
2018-06-10T13:32:52.017Z,8.40
2018-06-10T13:35:20.796Z,7.10
2018-06-10T13:37:49.590Z,6.73
2018-06-10T13:40:18.220Z,7.00
2018-06-10T13:42:46.896Z,6.93
2018-06-10T13:45:15.200Z,7.03
2018-06-10T13:47:44.007Z,6.90
2018-06-10T13:50:12.625Z,6.30
2018-06-10T13:52:41.312Z,6.63
2018-06-10T13:55:10.285Z,5.17
2018-06-10T13:57:38.940Z,4.60
2018-06-10T14:00:07.685Z,4.73
2018-06-10T14:02:36.389Z,4.27
2018-06-10T14:05:05.699Z,6.03
2018-06-10T14:07:35.075Z,5.53
2018-06-10T14:10:04.157Z,5.60
2018-06-10T14:12:32.827Z,5.20
2018-06-10T14:15:01.518Z,5.57
2018-06-10T14:17:30.300Z,5.30
2018-06-10T14:19:58.861Z,4.70
2018-06-10T14:22:27.909Z,6.60
2018-06-10T14:24:56.545Z,3.97
2018-06-10T14:27:25.253Z,3.50
2018-06-10T14:29:54.086Z,4.53
2018-06-10T14:32:22.827Z,3.87
2018-06-10T14:34:51.474Z,3.97
2018-06-10T14:37:20.634Z,4.87
2018-06-10T14:39:49.225Z,4.07
2018-06-10T14:42:18.813Z,4.47
2018-06-10T14:44:47.691Z,5.23
2018-06-10T14:47:16.279Z,5.50
2018-06-10T14:49:44.863Z,5.80
2018-06-10T14:52:13.574Z,6.67
2018-06-10T14:54:42.343Z,6.70
2018-06-10T14:57:10.925Z,6.87
2018-06-10T14:59:40.049Z,5.90
2018-06-10T15:02:09.162Z,7.77
2018-06-10T15:04:38.236Z,7.27
2018-06-10T15:07:07.012Z,8.13
2018-06-10T15:09:35.725Z,7.30
2018-06-10T15:12:04.417Z,7.73
2018-06-10T15:14:34.257Z,7.63
2018-06-10T15:17:06.475Z,8.00
2018-06-10T15:19:35.906Z,7.60
2018-06-10T15:22:05.392Z,7.33
2018-06-10T15:24:34.797Z,8.00
2018-06-10T15:27:03.807Z,7.40
2018-06-10T15:29:32.749Z,7.77
2018-06-10T15:32:01.957Z,8.20
2018-06-10T15:34:30.906Z,8.00
2018-06-10T15:37:00.500Z,8.63
2018-06-10T15:39:29.726Z,10.37
2018-06-10T15:41:58.738Z,11.03
2018-06-10T15:44:27.707Z,10.37
2018-06-10T15:46:56.662Z,8.77
2018-06-10T15:49:25.592Z,8.53
2018-06-10T15:51:55.382Z,7.40
2018-06-10T15:54:24.678Z,8.17
2018-06-10T15:56:53.489Z,7.60
2018-06-10T15:59:22.141Z,7.93
2018-06-10T16:01:50.455Z,7.50
2018-06-10T16:04:19.048Z,8.40
2018-06-10T16:06:47.704Z,7.67
2018-06-10T16:09:16.276Z,8.80
2018-06-10T16:11:44.902Z,8.60
2018-06-10T16:14:13.611Z,8.67
2018-06-10T16:16:41.900Z,8.77
2018-06-10T16:19:10.131Z,8.70
2018-06-10T16:21:38.623Z,9.60
2018-06-10T16:24:07.236Z,9.60
2018-06-10T16:26:35.948Z,9.37
2018-06-10T16:29:04.955Z,9.77
2018-06-10T16:31:33.390Z,9.27
2018-06-10T16:34:02.815Z,8.27
2018-06-10T16:36:31.636Z,8.17
2018-06-10T16:39:00.131Z,8.20
2018-06-10T16:41:28.919Z,7.70
2018-06-10T16:43:58.069Z,8.70
2018-06-10T16:46:26.594Z,7.93
2018-06-10T16:48:55.144Z,7.00
2018-06-10T16:51:23.533Z,8.40
2018-06-10T16:53:52.028Z,9.20
2018-06-10T16:56:20.595Z,8.77
2018-06-10T16:58:49.635Z,8.83
2018-06-10T17:01:18.218Z,8.87
2018-06-10T17:03:46.874Z,8.40
2018-06-10T17:06:15.207Z,9.43
2018-06-10T17:08:44.166Z,8.70
2018-06-10T17:11:12.884Z,10.67
2018-06-10T17:13:41.532Z,9.63
2018-06-10T17:16:10.332Z,9.40
2018-06-10T17:18:39.044Z,9.93
2018-06-10T17:21:07.735Z,9.17
2018-06-10T17:23:36.224Z,9.77
2018-06-10T17:26:04.876Z,10.00
2018-06-10T17:28:33.547Z,12.27
2018-06-10T17:31:02.108Z,9.23
2018-06-10T17:33:31.015Z,7.63
2018-06-10T17:36:00.479Z,9.40
2018-06-10T17:38:29.102Z,7.30
2018-06-10T17:40:58.156Z,7.37
2018-06-10T17:43:26.835Z,8.90
2018-06-10T17:54:34.488Z,5.93
2018-06-10T17:57:03.102Z,8.30
2018-06-10T17:59:31.807Z,7.23
2018-06-10T18:02:00.615Z,6.73
2018-06-10T18:04:29.290Z,8.13
2018-06-10T18:06:57.774Z,8.30
2018-06-10T18:09:27.004Z,7.93
2018-06-10T18:11:55.515Z,7.60
2018-06-10T18:14:24.084Z,10.20
2018-06-10T18:16:52.919Z,11.80
2018-06-10T18:19:21.865Z,13.27
2018-06-10T18:21:51.708Z,14.17
2018-06-10T18:24:20.028Z,13.47
2018-06-10T18:26:48.585Z,12.57
2018-06-10T18:29:17.263Z,14.67
2018-06-10T18:31:46.451Z,14.30
2018-06-10T18:34:16.248Z,15.90
2018-06-10T18:36:45.158Z,17.00
2018-06-10T18:39:13.922Z,16.13
2018-06-10T18:41:42.790Z,16.50
2018-06-10T18:44:13.233Z,19.60
2018-06-10T18:46:42.260Z,21.10
2018-06-10T18:49:10.934Z,21.67
2018-06-10T18:51:39.848Z,20.00
2018-06-10T18:54:08.493Z,18.37
2018-06-10T18:56:37.048Z,22.10
2018-06-10T18:59:05.352Z,17.20
2018-06-10T19:01:34.017Z,19.10
2018-06-10T19:04:02.293Z,22.33
2018-06-10T19:06:31.432Z,22.87
2018-06-10T19:09:00.368Z,20.73
2018-06-10T19:11:35.650Z,25.10
2018-06-10T19:14:04.545Z,23.13
2018-06-10T19:16:33.570Z,26.40
2018-06-10T19:19:02.115Z,29.37
2018-06-10T19:21:30.743Z,29.67
2018-06-10T19:23:59.732Z,29.50
2018-06-10T19:26:28.875Z,24.80
2018-06-10T19:28:58.562Z,30.17
2018-06-10T19:31:27.182Z,35.80
2018-06-10T19:33:55.504Z,27.77
2018-06-10T19:36:24.540Z,37.80
2018-06-10T19:38:53.211Z,38.90
2018-06-10T19:41:22.017Z,39.40
2018-06-10T19:43:50.634Z,39.17
2018-06-10T19:46:19.282Z,25.43
2018-06-10T19:48:47.923Z,33.90
2018-06-10T19:51:16.608Z,40.07
2018-06-10T19:53:45.177Z,36.10
2018-06-10T19:56:14.083Z,33.90
2018-06-10T19:58:42.711Z,22.90
2018-06-10T20:01:11.563Z,36.27
2018-06-10T20:03:40.200Z,33.80
2018-06-10T20:06:08.789Z,33.67
2018-06-10T20:08:37.597Z,32.17
2018-06-10T20:11:05.834Z,32.93
2018-06-10T20:13:34.375Z,22.37
2018-06-10T20:16:03.077Z,39.63
2018-06-10T20:18:32.018Z,38.50
2018-06-10T20:21:00.634Z,39.10
2018-06-10T20:23:29.255Z,43.57
2018-06-10T20:25:57.754Z,52.57
2018-06-10T20:28:26.566Z,53.60
2018-06-10T20:30:55.253Z,53.10
2018-06-10T20:33:23.921Z,48.83
2018-06-10T20:35:52.553Z,47.97
2018-06-10T20:38:21.138Z,62.70
2018-06-10T20:40:49.760Z,51.07
2018-06-10T20:43:18.324Z,58.97
2018-06-10T20:45:46.894Z,48.57
2018-06-10T20:48:15.398Z,40.30
2018-06-10T20:50:43.986Z,40.53
2018-06-10T20:53:12.930Z,45.57
2018-06-10T20:55:41.575Z,53.37
2018-06-10T20:58:10.610Z,51.77
2018-06-10T21:00:39.592Z,45.73
2018-06-10T21:03:08.176Z,57.93
2018-06-10T21:05:36.626Z,49.20
2018-06-10T21:08:05.649Z,56.23
2018-06-10T21:10:34.186Z,62.50
2018-06-10T21:13:02.888Z,62.20
2018-06-10T21:15:31.431Z,65.80
2018-06-10T21:18:00.240Z,69.60
2018-06-10T21:20:28.928Z,63.40
2018-06-10T21:22:57.560Z,59.03
2018-06-10T21:25:26.173Z,62.70
2018-06-10T21:27:54.832Z,71.93
2018-06-10T21:30:23.583Z,71.33
2018-06-10T21:32:52.232Z,49.67
2018-06-10T21:35:20.790Z,68.37
2018-06-10T21:37:49.522Z,65.87
2018-06-10T21:40:18.003Z,63.23
2018-06-10T21:42:46.668Z,70.23
2018-06-10T21:45:15.381Z,59.20
2018-06-10T21:47:43.684Z,65.50
2018-06-10T21:50:12.489Z,50.80
2018-06-10T21:52:41.157Z,56.97
2018-06-10T21:55:09.983Z,68.03
2018-06-10T21:57:38.805Z,84.90
2018-06-10T22:00:24.817Z,71.17
2018-06-10T22:02:53.474Z,66.30
2018-06-10T22:05:22.406Z,66.97
2018-06-10T22:07:51.105Z,61.90
2018-06-10T22:10:19.724Z,68.60
2018-06-10T22:12:48.382Z,57.73
2018-06-10T22:15:17.079Z,76.67
2018-06-10T22:17:45.764Z,75.00
2018-06-10T22:20:14.455Z,65.20
2018-06-10T22:22:43.138Z,63.30
2018-06-10T22:25:11.675Z,66.00
2018-06-10T22:27:40.046Z,65.77
2018-06-10T22:30:09.116Z,66.20
2018-06-10T22:32:37.868Z,80.37
2018-06-10T22:35:06.444Z,67.97
2018-06-10T22:37:35.011Z,70.70
2018-06-10T22:40:03.816Z,67.83
2018-06-10T22:42:32.848Z,65.53
2018-06-10T22:45:01.761Z,74.17
2018-06-10T22:47:30.366Z,73.07
2018-06-10T22:49:58.898Z,57.93
2018-06-10T22:52:27.489Z,69.67
2018-06-10T22:54:56.313Z,53.93
2018-06-10T22:57:24.879Z,67.50
2018-06-10T22:59:53.341Z,58.67
2018-06-10T23:02:21.990Z,78.37
2018-06-10T23:04:50.685Z,60.83
2018-06-10T23:07:19.048Z,59.13
2018-06-10T23:09:47.657Z,70.80
2018-06-10T23:12:16.681Z,72.60
2018-06-10T23:14:45.322Z,57.27
2018-06-10T23:17:13.715Z,62.87
2018-06-10T23:19:42.053Z,73.60
2018-06-10T23:22:10.635Z,71.93
2018-06-10T23:24:39.374Z,66.87
2018-06-10T23:27:07.870Z,76.43
2018-06-10T23:29:36.329Z,72.03
2018-06-10T23:32:04.549Z,74.17
2018-06-10T23:34:33.033Z,78.50
2018-06-10T23:37:01.519Z,80.77
2018-06-10T23:39:30.100Z,66.13
2018-06-10T23:41:58.647Z,73.87
2018-06-10T23:44:27.074Z,67.13
2018-06-10T23:46:55.660Z,71.37
2018-06-10T23:49:24.302Z,79.37
2018-06-10T23:51:52.738Z,70.70
2018-06-10T23:54:21.215Z,64.97
2018-06-10T23:56:49.865Z,83.40
2018-06-10T23:59:18.457Z,88.30
